createdAt,value
2023-01-22T00:00:55.032Z,-1.37
2023-01-22T00:03:58.257Z,-1.39
2023-01-22T00:07:00.129Z,-1.39
2023-01-22T00:10:02.208Z,-1.38
2023-01-22T00:13:04.112Z,-1.41
2023-01-22T00:16:06.466Z,-1.42
2023-01-22T00:19:09.716Z,-1.39
2023-01-22T00:22:12.421Z,-1.37
2023-01-22T00:25:14.149Z,-1.43
2023-01-22T00:28:19.742Z,-1.44
2023-01-22T00:31:21.556Z,-1.41
2023-01-22T00:34:24.637Z,-1.43
2023-01-22T00:37:26.850Z,-1.42
2023-01-22T00:40:29.328Z,-1.41
2023-01-22T00:43:31.752Z,-1.43
2023-01-22T00:46:33.799Z,-1.41
2023-01-22T00:49:36.786Z,-1.39
2023-01-22T00:52:38.371Z,-1.42
2023-01-22T00:55:40.192Z,-1.42
2023-01-22T00:58:43.187Z,-1.42
2023-01-22T01:01:45.788Z,-1.41
2023-01-22T01:04:49.548Z,-1.38
2023-01-22T01:07:51.925Z,-1.38
2023-01-22T01:10:54.641Z,-1.38
2023-01-22T01:13:56.644Z,-1.37
2023-01-22T01:16:59.145Z,-1.37
2023-01-22T01:20:07.767Z,-1.37
2023-01-22T01:23:09.559Z,-1.34
2023-01-22T01:26:13.208Z,-1.32
2023-01-22T01:29:16.540Z,-1.30
2023-01-22T01:32:18.481Z,-1.27
2023-01-22T01:35:24.161Z,-1.25
2023-01-22T01:38:25.954Z,-1.25
2023-01-22T01:41:27.613Z,-1.24
2023-01-22T01:44:30.663Z,-1.22
2023-01-22T01:47:34.622Z,-1.26
2023-01-22T01:50:38.859Z,-1.23
2023-01-22T01:53:42.686Z,-1.23
2023-01-22T01:56:46.415Z,-1.24
2023-01-22T01:59:50.477Z,-1.25
2023-01-22T02:02:52.363Z,-1.18
2023-01-22T02:05:55.501Z,-1.18
2023-01-22T02:08:58.537Z,-1.20
2023-01-22T02:12:00.684Z,-1.22
2023-01-22T02:15:03.890Z,-1.22
2023-01-22T02:18:05.678Z,-1.20
2023-01-22T02:21:22.164Z,-1.21
2023-01-22T02:24:29.456Z,-1.21
2023-01-22T02:27:31.237Z,-1.16
2023-01-22T02:30:33.196Z,-1.20
2023-01-22T02:33:35.067Z,-1.22
2023-01-22T02:36:37.845Z,-1.23
2023-01-22T02:39:41.143Z,-1.23
2023-01-22T02:42:42.839Z,-1.22
2023-01-22T02:45:46.284Z,-1.22
2023-01-22T02:48:47.971Z,-1.21
2023-01-22T02:51:51.018Z,-1.19
2023-01-22T02:54:55.208Z,-1.18
2023-01-22T02:57:56.941Z,-1.12
2023-01-22T03:01:06.819Z,-1.12
2023-01-22T03:04:11.441Z,-1.13
2023-01-22T03:07:13.325Z,-1.14
2023-01-22T03:10:17.937Z,-1.15
2023-01-22T03:13:39.296Z,-1.14
2023-01-22T03:17:00.032Z,-1.15
2023-01-22T03:20:20.445Z,-1.15
2023-01-22T03:23:27.612Z,-1.09
2023-01-22T03:26:31.587Z,-1.09
2023-01-22T03:29:38.445Z,-1.08
2023-01-22T03:32:42.753Z,-1.09
2023-01-22T03:35:45.162Z,-1.06
2023-01-22T03:38:51.676Z,-1.10
2023-01-22T03:41:57.756Z,-1.10
2023-01-22T03:45:00.289Z,-1.08
2023-01-22T03:48:02.923Z,-1.09
2023-01-22T03:51:11.443Z,-1.08
2023-01-22T03:54:13.825Z,-1.10
2023-01-22T03:57:17.000Z,-1.10
2023-01-22T04:00:19.550Z,-1.12
2023-01-22T04:03:21.356Z,-1.12
2023-01-22T04:06:24.000Z,-1.10
2023-01-22T04:09:25.655Z,-1.10
2023-01-22T04:12:28.758Z,-1.12
2023-01-22T04:18:51.580Z,-1.12
2023-01-22T04:22:13.356Z,-1.13
2023-01-22T04:25:17.625Z,-1.13
2023-01-22T04:28:21.314Z,-1.12
2023-01-22T04:31:26.489Z,-1.13
2023-01-22T04:34:34.993Z,-1.12
2023-01-22T04:37:48.367Z,-1.09
2023-01-22T04:40:49.994Z,-1.10
2023-01-22T04:43:53.255Z,-1.13
2023-01-22T04:46:57.200Z,-1.12
2023-01-22T04:49:58.858Z,-1.12
2023-01-22T04:53:01.161Z,-1.13
2023-01-22T04:56:02.910Z,-1.17
2023-01-22T04:59:05.960Z,-1.17
2023-01-22T05:02:08.003Z,-1.17
2023-01-22T05:05:09.847Z,-1.15
2023-01-22T05:08:11.635Z,-1.16
2023-01-22T05:11:13.142Z,-1.14
2023-01-22T05:14:25.836Z,-1.10
2023-01-22T05:17:27.804Z,-1.12
2023-01-22T05:20:30.367Z,-1.12
2023-01-22T05:23:33.668Z,-1.14
2023-01-22T05:26:36.100Z,-1.16
2023-01-22T05:29:43.526Z,-1.16
2023-01-22T05:32:59.115Z,-1.15
2023-01-22T05:36:04.928Z,-1.19
2023-01-22T05:39:10.634Z,-1.21
2023-01-22T05:42:13.823Z,-1.19
2023-01-22T05:45:18.030Z,-1.20
2023-01-22T05:48:33.344Z,-1.20
2023-01-22T05:55:19.919Z,-1.20
2023-01-22T05:58:21.488Z,-1.17
2023-01-22T06:01:27.301Z,-1.19
2023-01-22T06:04:31.519Z,-1.15
2023-01-22T06:07:35.375Z,-1.16
2023-01-22T06:10:37.223Z,-1.15
2023-01-22T06:13:39.445Z,-1.15
2023-01-22T06:16:52.441Z,-1.13
2023-01-22T06:20:09.377Z,-1.15
2023-01-22T06:23:10.994Z,-1.14
2023-01-22T06:26:12.735Z,-1.12
2023-01-22T06:29:16.632Z,-1.11
2023-01-22T06:32:21.031Z,-1.10
2023-01-22T06:35:22.905Z,-1.08
2023-01-22T06:38:25.430Z,-1.08
2023-01-22T06:41:27.039Z,-1.03
2023-01-22T06:44:33.397Z,-1.05
2023-01-22T06:47:36.486Z,-1.04
2023-01-22T06:50:38.378Z,-1.02
2023-01-22T06:53:39.839Z,-1.01
2023-01-22T06:56:41.523Z,-0.97
2023-01-22T06:59:43.231Z,-0.95
2023-01-22T07:02:46.272Z,-0.94
2023-01-22T07:05:55.368Z,-0.97
2023-01-22T07:08:56.989Z,-0.98
2023-01-22T07:12:01.161Z,-0.95
2023-01-22T07:15:03.093Z,-0.96
2023-01-22T07:18:06.117Z,-0.95
2023-01-22T07:21:07.796Z,-0.95
2023-01-22T07:24:09.620Z,-0.93
2023-01-22T07:27:11.291Z,-0.87
2023-01-22T07:30:13.554Z,-0.85
2023-01-22T07:33:16.831Z,-0.84
2023-01-22T07:36:18.414Z,-0.84
2023-01-22T07:39:20.761Z,-0.84
2023-01-22T07:42:22.640Z,-0.83
2023-01-22T07:45:24.909Z,-0.80
2023-01-22T07:48:28.323Z,-0.78
2023-01-22T07:51:55.050Z,-0.76
2023-01-22T07:54:56.846Z,-0.73
2023-01-22T07:57:59.167Z,-0.72
2023-01-22T08:01:01.198Z,-0.70
2023-01-22T08:04:04.347Z,-0.67
2023-01-22T08:07:06.159Z,-0.66
2023-01-22T08:10:08.760Z,-0.63
2023-01-22T08:13:10.705Z,-0.61
2023-01-22T08:16:12.357Z,-0.57
2023-01-22T08:19:15.326Z,-0.54
2023-01-22T08:22:16.833Z,-0.48
2023-01-22T08:25:18.687Z,-0.45
2023-01-22T08:28:20.264Z,-0.38
2023-01-22T08:31:27.785Z,-0.34
2023-01-22T08:34:31.547Z,-0.34
2023-01-22T08:37:33.668Z,-0.35
2023-01-22T08:40:37.696Z,-0.32
2023-01-22T08:43:39.478Z,-0.27
2023-01-22T08:46:41.139Z,-0.23
2023-01-22T08:49:44.236Z,-0.24
2023-01-22T08:52:46.058Z,-0.22
2023-01-22T08:55:50.942Z,-0.24
2023-01-22T08:58:52.656Z,-0.15
2023-01-22T09:01:54.323Z,-0.15
2023-01-22T09:04:59.556Z,-0.19
2023-01-22T09:08:01.118Z,-0.21
2023-01-22T09:11:03.859Z,-0.16
2023-01-22T09:14:08.318Z,-0.17
2023-01-22T09:17:09.944Z,-0.15
2023-01-22T09:20:13.055Z,-0.22
2023-01-22T09:23:15.711Z,-0.20
2023-01-22T09:26:17.301Z,-0.18
2023-01-22T09:29:18.872Z,-0.18
2023-01-22T09:32:20.618Z,-0.23
2023-01-22T09:35:23.781Z,-0.21
2023-01-22T09:38:25.383Z,-0.25
2023-01-22T09:41:32.406Z,-0.28
2023-01-22T09:44:37.674Z,-0.26
2023-01-22T09:47:42.074Z,-0.20
2023-01-22T09:50:46.330Z,-0.21
2023-01-22T09:53:51.376Z,-0.12
2023-01-22T09:56:54.319Z,-0.04
2023-01-22T09:59:56.928Z,-0.11
2023-01-22T10:03:00.904Z,-0.11
2023-01-22T10:06:07.818Z,-0.09
2023-01-22T10:09:12.778Z,-0.05
2023-01-22T10:12:14.508Z,-0.10
2023-01-22T10:15:18.367Z,-0.13
2023-01-22T10:18:27.187Z,-0.18
2023-01-22T10:21:41.562Z,-0.19
2023-01-22T10:24:43.519Z,-0.16
2023-01-22T10:27:46.663Z,-0.19
2023-01-22T10:30:48.921Z,-0.22
2023-01-22T10:33:55.865Z,-0.25
2023-01-22T10:37:01.881Z,-0.23
2023-01-22T10:40:03.577Z,-0.30
2023-01-22T10:43:06.800Z,-0.25
2023-01-22T10:46:16.398Z,-0.20
2023-01-22T10:49:20.016Z,-0.18
2023-01-22T10:52:39.892Z,-0.09
2023-01-22T10:55:42.422Z,-0.09
2023-01-22T10:58:48.105Z,-0.08
2023-01-22T11:01:58.274Z,-0.03
2023-01-22T11:05:07.312Z,-0.02
2023-01-22T11:08:12.558Z,-0.04
2023-01-22T11:11:16.103Z,-0.06
2023-01-22T11:14:20.750Z,-0.06
2023-01-22T11:17:26.793Z,-0.07
2023-01-22T11:20:31.020Z,0.00
2023-01-22T11:23:39.314Z,0.04
2023-01-22T11:26:48.422Z,0.07
2023-01-22T11:29:56.404Z,0.03
2023-01-22T11:33:01.795Z,0.03
2023-01-22T11:36:09.757Z,0.06
2023-01-22T11:39:19.733Z,0.09
2023-01-22T11:42:28.197Z,0.05
2023-01-22T11:45:39.255Z,0.06
2023-01-22T11:48:47.073Z,0.15
2023-01-22T11:51:58.091Z,0.19
2023-01-22T11:55:10.429Z,0.13
2023-01-22T11:58:15.509Z,0.07
2023-01-22T12:01:21.564Z,0.14
2023-01-22T12:04:38.427Z,0.09
2023-01-22T12:07:53.483Z,0.06
2023-01-22T12:11:03.142Z,0.06
2023-01-22T12:14:14.239Z,0.04
2023-01-22T12:17:22.418Z,0.04
2023-01-22T12:20:31.807Z,0.09
2023-01-22T12:23:37.430Z,0.05
2023-01-22T12:26:41.841Z,0.10
2023-01-22T12:29:45.145Z,0.09
2023-01-22T12:32:50.106Z,0.10
2023-01-22T12:35:53.004Z,0.13
2023-01-22T12:38:59.389Z,0.14
2023-01-22T12:42:09.061Z,0.21
2023-01-22T12:45:17.715Z,0.18
2023-01-22T12:48:24.644Z,0.24
2023-01-22T12:51:27.973Z,0.24
2023-01-22T12:54:32.608Z,0.27
2023-01-22T12:57:40.018Z,0.34
2023-01-22T13:00:42.113Z,0.37
2023-01-22T13:03:44.587Z,0.35
2023-01-22T13:06:49.343Z,0.38
2023-01-22T13:10:01.044Z,0.34
2023-01-22T13:13:14.912Z,0.30
2023-01-22T13:16:18.406Z,0.29
2023-01-22T13:19:22.175Z,0.26
2023-01-22T13:22:25.785Z,0.26
2023-01-22T13:25:28.708Z,0.23
2023-01-22T13:28:32.295Z,0.17
2023-01-22T13:31:34.930Z,0.07
2023-01-22T13:34:38.891Z,0.07
2023-01-22T13:37:41.900Z,0.05
2023-01-22T13:40:51.297Z,-0.01
2023-01-22T13:43:55.114Z,0.07
2023-01-22T13:46:57.000Z,0.08
2023-01-22T13:49:59.056Z,0.05
2023-01-22T13:53:02.060Z,0.08
2023-01-22T13:59:20.542Z,0.08
2023-01-22T14:02:23.523Z,0.19
2023-01-22T14:05:26.457Z,0.07
2023-01-22T14:08:28.178Z,0.02
2023-01-22T14:11:39.482Z,-0.04
2023-01-22T14:14:44.629Z,-0.04
2023-01-22T14:17:47.573Z,0.02
2023-01-22T14:20:51.607Z,-0.02
2023-01-22T14:23:53.756Z,-0.01
2023-01-22T14:26:59.060Z,-0.04
2023-01-22T14:30:02.119Z,-0.02
2023-01-22T14:33:04.255Z,-0.03
2023-01-22T14:36:06.706Z,-0.03
2023-01-22T14:39:08.577Z,-0.05
2023-01-22T14:42:11.354Z,-0.12
2023-01-22T14:45:16.694Z,-0.14
2023-01-22T14:48:19.367Z,-0.17
2023-01-22T14:51:21.033Z,-0.14
2023-01-22T14:54:22.721Z,-0.21
2023-01-22T14:57:25.474Z,-0.22
2023-01-22T15:00:29.495Z,-0.21
2023-01-22T15:03:31.148Z,-0.22
2023-01-22T15:06:33.185Z,-0.25
2023-01-22T15:09:35.932Z,-0.19
2023-01-22T15:12:37.640Z,-0.17
2023-01-22T15:15:40.765Z,-0.26
2023-01-22T15:18:42.485Z,-0.27
2023-01-22T15:21:44.426Z,-0.24
2023-01-22T15:24:46.203Z,-0.25
2023-01-22T15:27:48.092Z,-0.28
2023-01-22T15:30:53.664Z,-0.30
2023-01-22T15:33:55.910Z,-0.30
2023-01-22T15:36:57.713Z,-0.29
2023-01-22T15:39:59.248Z,-0.30
2023-01-22T15:43:03.406Z,-0.35
2023-01-22T15:46:06.608Z,-0.36
2023-01-22T15:49:09.188Z,-0.37
2023-01-22T15:52:11.244Z,-0.34
2023-01-22T15:55:13.007Z,-0.38
2023-01-22T15:58:16.037Z,-0.35
2023-01-22T16:01:19.573Z,-0.35
2023-01-22T16:04:21.287Z,-0.37
2023-01-22T16:07:22.978Z,-0.40
2023-01-22T16:10:24.548Z,-0.39
2023-01-22T16:13:26.190Z,-0.40
2023-01-22T16:16:31.431Z,-0.40
2023-01-22T16:19:33.291Z,-0.42
2023-01-22T16:25:55.942Z,-0.38
2023-01-22T16:28:59.247Z,-0.38
2023-01-22T16:32:02.498Z,-0.39
2023-01-22T16:35:04.546Z,-0.40
2023-01-22T16:38:06.291Z,-0.38
2023-01-22T16:41:24.954Z,-0.41
2023-01-22T16:44:27.632Z,-0.41
2023-01-22T16:47:30.817Z,-0.39
2023-01-22T16:50:32.833Z,-0.37
2023-01-22T16:53:34.693Z,-0.34
2023-01-22T16:56:36.630Z,-0.35
2023-01-22T16:59:40.933Z,-0.37
2023-01-22T17:02:44.178Z,-0.37
2023-01-22T17:05:48.055Z,-0.33
2023-01-22T17:08:51.437Z,-0.30
2023-01-22T17:11:54.061Z,-0.24
2023-01-22T17:14:55.788Z,-0.28
2023-01-22T17:17:59.729Z,-0.27
2023-01-22T17:21:02.605Z,-0.21
2023-01-22T17:24:05.729Z,-0.25
2023-01-22T17:27:07.819Z,-0.30
2023-01-22T17:30:10.845Z,-0.27
2023-01-22T17:33:14.076Z,-0.27
2023-01-22T17:36:16.699Z,-0.26
2023-01-22T17:39:20.252Z,-0.28
2023-01-22T17:42:21.903Z,-0.29
2023-01-22T17:45:24.696Z,-0.27
2023-01-22T17:48:28.379Z,-0.26
2023-01-22T17:51:30.788Z,-0.27
2023-01-22T17:54:32.415Z,-0.27
2023-01-22T17:57:34.091Z,-0.27
2023-01-22T18:00:37.775Z,-0.27
2023-01-22T18:03:41.241Z,-0.27
2023-01-22T18:06:43.383Z,-0.28
2023-01-22T18:09:45.301Z,-0.30
2023-01-22T18:12:48.396Z,-0.31
2023-01-22T18:15:50.428Z,-0.28
2023-01-22T18:18:54.614Z,-0.29
2023-01-22T18:21:56.391Z,-0.31
2023-01-22T18:24:59.167Z,-0.30
2023-01-22T18:28:00.721Z,-0.28
2023-01-22T18:31:06.759Z,-0.26
2023-01-22T18:34:10.673Z,-0.24
2023-01-22T18:37:13.138Z,-0.24
2023-01-22T18:40:15.216Z,-0.25
2023-01-22T18:43:17.147Z,-0.28
2023-01-22T18:46:18.985Z,-0.29
2023-01-22T18:49:23.053Z,-0.27
2023-01-22T18:52:25.619Z,-0.28
2023-01-22T18:55:27.982Z,-0.33
2023-01-22T18:58:31.134Z,-0.33
2023-01-22T19:01:33.912Z,-0.34
2023-01-22T19:04:36.897Z,-0.33
2023-01-22T19:07:38.927Z,-0.31
2023-01-22T19:10:40.853Z,-0.27
2023-01-22T19:13:44.908Z,-0.21
2023-01-22T19:16:48.640Z,-0.20
2023-01-22T19:19:51.880Z,-0.16
2023-01-22T19:22:54.271Z,-0.12
2023-01-22T19:26:03.765Z,-0.11
2023-01-22T19:29:06.732Z,-0.07
2023-01-22T19:32:12.492Z,-0.05
2023-01-22T19:35:15.725Z,-0.11
2023-01-22T19:38:17.357Z,-0.15
2023-01-22T19:41:19.252Z,-0.17
2023-01-22T19:44:20.982Z,-0.20
2023-01-22T19:47:22.949Z,-0.22
2023-01-22T19:50:26.275Z,-0.22
2023-01-22T19:53:28.527Z,-0.22
2023-01-22T19:56:31.213Z,-0.21
2023-01-22T19:59:33.124Z,-0.20
2023-01-22T20:02:34.790Z,-0.19
2023-01-22T20:05:41.136Z,-0.17
2023-01-22T20:08:43.123Z,-0.15
2023-01-22T20:11:45.582Z,-0.15
2023-01-22T20:14:47.458Z,-0.11
2023-01-22T20:17:51.071Z,-0.13
2023-01-22T20:20:54.560Z,-0.11
2023-01-22T20:23:56.317Z,-0.12
2023-01-22T20:26:59.442Z,-0.15
2023-01-22T20:30:01.116Z,-0.13
2023-01-22T20:33:02.776Z,-0.13
2023-01-22T20:36:07.449Z,-0.13
2023-01-22T20:39:09.013Z,-0.12
2023-01-22T20:42:10.596Z,-0.12
2023-01-22T20:45:12.579Z,-0.11
2023-01-22T20:48:14.193Z,-0.06
2023-01-22T20:51:18.442Z,-0.05
2023-01-22T20:54:20.188Z,-0.04
2023-01-22T20:57:21.835Z,-0.04
2023-01-22T21:00:24.108Z,-0.05
2023-01-22T21:03:25.765Z,-0.01
2023-01-22T21:06:31.888Z,-0.07
2023-01-22T21:09:35.437Z,-0.10
2023-01-22T21:12:37.183Z,-0.07
2023-01-22T21:15:38.947Z,-0.04
2023-01-22T21:18:45.676Z,-0.05
2023-01-22T21:21:48.758Z,-0.05
2023-01-22T21:24:50.562Z,-0.02
2023-01-22T21:27:52.473Z,0.02
2023-01-22T21:30:54.097Z,-0.03
2023-01-22T21:34:02.655Z,-0.05
2023-01-22T21:37:05.832Z,-0.01
2023-01-22T21:40:10.469Z,-0.02
2023-01-22T21:43:32.943Z,0.01
2023-01-22T21:46:36.189Z,0.06
2023-01-22T21:49:37.905Z,0.03
2023-01-22T21:52:42.507Z,-0.02
2023-01-22T21:55:49.950Z,-0.05
2023-01-22T21:58:51.932Z,-0.04
2023-01-22T22:01:54.701Z,0.01
2023-01-22T22:04:56.521Z,-0.01
2023-01-22T22:07:59.533Z,0.03
2023-01-22T22:11:01.294Z,-0.01
2023-01-22T22:14:08.416Z,-0.03
2023-01-22T22:17:11.580Z,-0.02
2023-01-22T22:20:17.687Z,-0.02
2023-01-22T22:23:21.561Z,0.01
2023-01-22T22:26:23.565Z,0.04
2023-01-22T22:29:26.235Z,0.03
2023-01-22T22:32:28.363Z,0.05
2023-01-22T22:35:30.330Z,0.03
2023-01-22T22:38:33.663Z,0.03
2023-01-22T22:41:37.096Z,0.03
2023-01-22T22:44:38.797Z,0.05
2023-01-22T22:47:40.746Z,0.06
2023-01-22T22:50:43.553Z,0.07
2023-01-22T22:53:47.753Z,0.09
2023-01-22T22:56:49.632Z,0.08
2023-01-22T22:59:51.725Z,0.05
2023-01-22T23:02:57.189Z,-0.01
2023-01-22T23:06:02.885Z,-0.02
2023-01-22T23:09:09.331Z,-0.04
2023-01-22T23:12:10.943Z,-0.02
2023-01-22T23:15:13.194Z,-0.04
2023-01-22T23:18:14.904Z,-0.08
2023-01-22T23:21:18.755Z,-0.12
2023-01-22T23:24:22.209Z,-0.13
2023-01-22T23:27:23.826Z,-0.12
2023-01-22T23:30:27.276Z,-0.16
2023-01-22T23:33:28.842Z,-0.20
2023-01-22T23:36:30.839Z,-0.22
2023-01-22T23:39:36.374Z,-0.22
2023-01-22T23:42:38.343Z,-0.21
2023-01-22T23:45:40.085Z,-0.19
2023-01-22T23:48:42.223Z,-0.13
2023-01-22T23:51:44.841Z,-0.09
2023-01-22T23:54:48.514Z,-0.14
2023-01-22T23:57:51.899Z,-0.13
